sensor_id;sensor_type;location;lat;lon;timestamp;pressure;altitude;pressure_sealevel;temperature;humidity
25947;BME280;13745;51.470;9.894;2023-01-27T00:01:57;99848.41;;;2.84;86.37
25947;BME280;13745;51.470;9.894;2023-01-27T00:04:42;99844.13;;;2.83;86.59
25947;BME280;13745;51.470;9.894;2023-01-27T00:07:27;99842.41;;;2.81;86.48
25947;BME280;13745;51.470;9.894;2023-01-27T00:10:16;99840.63;;;2.80;86.50
25947;BME280;13745;51.470;9.894;2023-01-27T00:13:01;99839.91;;;2.85;86.51
25947;BME280;13745;51.470;9.894;2023-01-27T00:16:04;99843.25;;;2.82;86.38
25947;BME280;13745;51.470;9.894;2023-01-27T00:18:49;99832.97;;;2.80;86.74
25947;BME280;13745;51.470;9.894;2023-01-27T00:21:34;99839.00;;;2.83;86.48
25947;BME280;13745;51.470;9.894;2023-01-27T00:24:37;99835.47;;;2.79;86.66
25947;BME280;13745;51.470;9.894;2023-01-27T00:27:23;99843.16;;;2.79;86.53
25947;BME280;13745;51.470;9.894;2023-01-27T00:30:11;99833.88;;;2.83;86.29
25947;BME280;13745;51.470;9.894;2023-01-27T00:32:58;99837.34;;;2.85;86.52
25947;BME280;13745;51.470;9.894;2023-01-27T00:36:02;99840.72;;;2.84;86.43
25947;BME280;13745;51.470;9.894;2023-01-27T00:38:48;99841.59;;;2.84;86.80
25947;BME280;13745;51.470;9.894;2023-01-27T00:41:33;99838.19;;;2.85;86.74
25947;BME280;13745;51.470;9.894;2023-01-27T00:44:20;99834.81;;;2.86;87.13
25947;BME280;13745;51.470;9.894;2023-01-27T00:47:06;99831.38;;;2.86;86.72
25947;BME280;13745;51.470;9.894;2023-01-27T00:49:51;99833.16;;;2.88;86.81
25947;BME280;13745;51.470;9.894;2023-01-27T00:52:36;99829.75;;;2.89;86.62
25947;BME280;13745;51.470;9.894;2023-01-27T00:55:22;99825.47;;;2.88;86.63
25947;BME280;13745;51.470;9.894;2023-01-27T00:58:07;99831.56;;;2.92;86.84
25947;BME280;13745;51.470;9.894;2023-01-27T01:00:54;99818.72;;;2.90;86.42
25947;BME280;13745;51.470;9.894;2023-01-27T01:03:40;99826.41;;;2.90;86.52
25947;BME280;13745;51.470;9.894;2023-01-27T01:06:26;99824.69;;;2.91;87.22
25947;BME280;13745;51.470;9.894;2023-01-27T01:09:11;99836.66;;;2.92;86.85
25947;BME280;13745;51.470;9.894;2023-01-27T01:11:56;99840.06;;;2.91;86.66
25947;BME280;13745;51.470;9.894;2023-01-27T01:14:41;99840.09;;;2.92;86.82
25947;BME280;13745;51.470;9.894;2023-01-27T01:17:27;99836.63;;;2.90;86.62
25947;BME280;13745;51.470;9.894;2023-01-27T01:20:15;99840.00;;;2.89;86.82
25947;BME280;13745;51.470;9.894;2023-01-27T01:23:00;99839.22;;;2.92;86.79
25947;BME280;13745;51.470;9.894;2023-01-27T01:25:51;99835.81;;;2.91;86.60
25947;BME280;13745;51.470;9.894;2023-01-27T01:28:37;99846.09;;;2.94;86.93
25947;BME280;13745;51.470;9.894;2023-01-27T01:31:24;99849.53;;;2.95;86.79
25947;BME280;13745;51.470;9.894;2023-01-27T01:34:10;99844.41;;;2.95;86.85
25947;BME280;13745;51.470;9.894;2023-01-27T01:36:56;99849.66;;;2.99;86.84
25947;BME280;13745;51.470;9.894;2023-01-27T01:39:40;99852.16;;;2.98;86.70
25947;BME280;13745;51.470;9.894;2023-01-27T01:42:25;99854.78;;;2.99;86.98
25947;BME280;13745;51.470;9.894;2023-01-27T01:45:44;99860.63;;;2.95;86.68
25947;BME280;13745;51.470;9.894;2023-01-27T01:48:33;99850.56;;;3.01;86.83
25947;BME280;13745;51.470;9.894;2023-01-27T01:51:24;99846.28;;;3.02;86.55
25947;BME280;13745;51.470;9.894;2023-01-27T01:54:13;99850.59;;;3.03;86.86
25947;BME280;13745;51.470;9.894;2023-01-27T01:57:04;99851.47;;;3.05;86.67
25947;BME280;13745;51.470;9.894;2023-01-27T01:59:53;99847.34;;;3.10;86.66
25947;BME280;13745;51.470;9.894;2023-01-27T02:02:41;99846.50;;;3.11;86.59
25947;BME280;13745;51.470;9.894;2023-01-27T02:05:31;99848.25;;;3.12;86.89
25947;BME280;13745;51.470;9.894;2023-01-27T02:08:20;99850.78;;;3.10;86.84
25947;BME280;13745;51.470;9.894;2023-01-27T02:11:09;99855.09;;;3.13;86.80
25947;BME280;13745;51.470;9.894;2023-01-27T02:13:54;99855.09;;;3.13;86.73
25947;BME280;13745;51.470;9.894;2023-01-27T02:16:39;99846.44;;;3.08;86.96
25947;BME280;13745;51.470;9.894;2023-01-27T02:19:31;99848.91;;;3.05;87.04
25947;BME280;13745;51.470;9.894;2023-01-27T02:22:23;99851.44;;;3.03;87.13
25947;BME280;13745;51.470;9.894;2023-01-27T02:25:18;99855.63;;;3.00;87.02
25947;BME280;13745;51.470;9.894;2023-01-27T02:28:08;99851.44;;;3.03;87.01
25947;BME280;13745;51.470;9.894;2023-01-27T02:30:54;99850.63;;;3.04;87.30
25947;BME280;13745;51.470;9.894;2023-01-27T02:33:39;99859.13;;;3.03;87.20
25947;BME280;13745;51.470;9.894;2023-01-27T02:36:26;99846.25;;;3.00;87.11
25947;BME280;13745;51.470;9.894;2023-01-27T02:39:15;99854.88;;;3.04;87.20
25947;BME280;13745;51.470;9.894;2023-01-27T02:42:03;99856.53;;;3.02;87.19
25947;BME280;13745;51.470;9.894;2023-01-27T02:44:50;99857.44;;;3.04;87.26
25947;BME280;13745;51.470;9.894;2023-01-27T02:47:35;99850.56;;;3.01;87.32
25947;BME280;13745;51.470;9.894;2023-01-27T02:50:21;99859.03;;;2.99;87.30
25947;BME280;13745;51.470;9.894;2023-01-27T02:53:06;99856.50;;;3.00;87.50
25947;BME280;13745;51.470;9.894;2023-01-27T02:55:53;99861.63;;;3.00;87.46
25947;BME280;13745;51.470;9.894;2023-01-27T02:58:39;99859.03;;;2.99;87.30
25947;BME280;13745;51.470;9.894;2023-01-27T03:01:30;99859.97;;;3.02;87.38
25947;BME280;13745;51.470;9.894;2023-01-27T03:04:16;99863.38;;;3.03;87.38
25947;BME280;13745;51.470;9.894;2023-01-27T03:07:01;99866.81;;;3.03;87.50
25947;BME280;13745;51.470;9.894;2023-01-27T03:09:46;99872.75;;;3.02;87.61
25947;BME280;13745;51.470;9.894;2023-01-27T03:12:31;99870.22;;;3.04;87.58
25947;BME280;13745;51.470;9.894;2023-01-27T03:15:16;99866.75;;;3.00;87.71
25947;BME280;13745;51.470;9.894;2023-01-27T03:18:20;99875.25;;;2.99;87.45
25947;BME280;13745;51.470;9.894;2023-01-27T03:21:06;99860.78;;;3.01;87.60
25947;BME280;13745;51.470;9.894;2023-01-27T03:23:51;99860.75;;;3.00;87.49
25947;BME280;13745;51.470;9.894;2023-01-27T03:26:39;99869.34;;;3.02;87.82
25947;BME280;13745;51.470;9.894;2023-01-27T03:29:26;99870.22;;;3.04;87.57
25947;BME280;13745;51.470;9.894;2023-01-27T03:32:30;99871.97;;;3.05;87.89
25947;BME280;13745;51.470;9.894;2023-01-27T03:35:42;99883.91;;;3.04;87.37
25947;BME280;13745;51.470;9.894;2023-01-27T03:38:35;99878.91;;;3.09;87.63
25947;BME280;13745;51.470;9.894;2023-01-27T03:41:38;99880.59;;;3.08;87.61
25947;BME280;13745;51.470;9.894;2023-01-27T03:44:43;99887.41;;;3.06;87.59
25947;BME280;13745;51.470;9.894;2023-01-27T03:47:46;99886.56;;;3.07;87.91
25947;BME280;13745;51.470;9.894;2023-01-27T03:50:31;99886.59;;;3.09;87.74
25947;BME280;13745;51.470;9.894;2023-01-27T03:53:22;99890.88;;;3.10;87.82
25947;BME280;13745;51.470;9.894;2023-01-27T03:56:07;99894.31;;;3.10;87.78
25947;BME280;13745;51.470;9.894;2023-01-27T03:58:52;99896.91;;;3.12;87.49
25947;BME280;13745;51.470;9.894;2023-01-27T04:01:37;99896.91;;;3.12;87.87
25947;BME280;13745;51.470;9.894;2023-01-27T04:04:22;99885.75;;;3.10;87.86
25947;BME280;13745;51.470;9.894;2023-01-27T04:07:25;99888.25;;;3.07;88.03
25947;BME280;13745;51.470;9.894;2023-01-27T04:10:11;99883.06;;;3.05;88.19
25947;BME280;13745;51.470;9.894;2023-01-27T04:12:57;99886.56;;;3.07;87.84
25947;BME280;13745;51.470;9.894;2023-01-27T04:15:40;99889.16;;;3.09;87.99
25947;BME280;13745;51.470;9.894;2023-01-27T04:18:26;99889.16;;;3.09;88.11
25947;BME280;13745;51.470;9.894;2023-01-27T04:21:11;99884.97;;;3.13;87.87
25947;BME280;13745;51.470;9.894;2023-01-27T04:23:56;99886.66;;;3.12;87.80
25947;BME280;13745;51.470;9.894;2023-01-27T04:26:43;99882.34;;;3.09;87.94
25947;BME280;13745;51.470;9.894;2023-01-27T04:29:29;99877.28;;;3.13;87.75
25947;BME280;13745;51.470;9.894;2023-01-27T04:32:15;99885.06;;;3.16;87.82
25947;BME280;13745;51.470;9.894;2023-01-27T04:35:00;99883.31;;;3.15;88.04
25947;BME280;13745;51.470;9.894;2023-01-27T04:37:45;99886.69;;;3.14;87.91
25947;BME280;13745;51.470;9.894;2023-01-27T04:40:30;99884.97;;;3.13;87.84
25947;BME280;13745;51.470;9.894;2023-01-27T04:43:16;99884.09;;;3.12;88.08
25947;BME280;13745;51.470;9.894;2023-01-27T04:46:04;99884.09;;;3.12;87.91
25947;BME280;13745;51.470;9.894;2023-01-27T04:48:49;99890.19;;;3.16;88.04
25947;BME280;13745;51.470;9.894;2023-01-27T04:51:34;99884.19;;;3.15;87.75
25947;BME280;13745;51.470;9.894;2023-01-27T04:54:19;99894.34;;;3.12;88.01
25947;BME280;13745;51.470;9.894;2023-01-27T04:57:04;99896.06;;;3.13;88.29
25947;BME280;13745;51.470;9.894;2023-01-27T04:59:50;99892.56;;;3.09;88.40
25947;BME280;13745;51.470;9.894;2023-01-27T05:02:36;99894.38;;;3.14;88.27
25947;BME280;13745;51.470;9.894;2023-01-27T05:05:20;99899.50;;;3.14;88.34
25947;BME280;13745;51.470;9.894;2023-01-27T05:08:07;99902.91;;;3.14;88.13
25947;BME280;13745;51.470;9.894;2023-01-27T05:10:53;99914.81;;;3.12;88.43
25947;BME280;13745;51.470;9.894;2023-01-27T05:13:39;99913.16;;;3.14;88.51
25947;BME280;13745;51.470;9.894;2023-01-27T05:16:26;99911.44;;;3.13;88.25
25947;BME280;13745;51.470;9.894;2023-01-27T05:19:11;99914.84;;;3.14;88.34
25947;BME280;13745;51.470;9.894;2023-01-27T05:21:56;99917.50;;;3.17;88.47
25947;BME280;13745;51.470;9.894;2023-01-27T05:24:41;99926.94;;;3.18;88.39
25947;BME280;13745;51.470;9.894;2023-01-27T05:27:26;99917.53;;;3.18;88.30
25947;BME280;13745;51.470;9.894;2023-01-27T05:30:12;99923.56;;;3.20;88.45
25947;BME280;13745;51.470;9.894;2023-01-27T05:32:58;99930.47;;;3.23;88.60
25947;BME280;13745;51.470;9.894;2023-01-27T05:35:44;99930.47;;;3.23;88.36
25947;BME280;13745;51.470;9.894;2023-01-27T05:38:29;99933.03;;;3.23;88.35
25947;BME280;13745;51.470;9.894;2023-01-27T05:41:16;99936.41;;;3.22;88.51
25947;BME280;13745;51.470;9.894;2023-01-27T05:44:02;99941.59;;;3.23;88.71
25947;BME280;13745;51.470;9.894;2023-01-27T05:46:47;99939.91;;;3.24;88.69
25947;BME280;13745;51.470;9.894;2023-01-27T05:49:34;99945.06;;;3.25;88.66
25947;BME280;13745;51.470;9.894;2023-01-27T05:52:19;99948.53;;;3.29;88.38
25947;BME280;13745;51.470;9.894;2023-01-27T05:55:04;99948.53;;;3.29;88.43
25947;BME280;13745;51.470;9.894;2023-01-27T05:57:50;99950.25;;;3.28;88.63
25947;BME280;13745;51.470;9.894;2023-01-27T06:00:34;99945.16;;;3.30;88.80
25947;BME280;13745;51.470;9.894;2023-01-27T06:03:20;99948.63;;;3.32;88.60
25947;BME280;13745;51.470;9.894;2023-01-27T06:06:08;99952.06;;;3.32;88.72
25947;BME280;13745;51.470;9.894;2023-01-27T06:08:53;99957.25;;;3.35;88.62
25947;BME280;13745;51.470;9.894;2023-01-27T06:11:38;99956.41;;;3.36;88.37
25947;BME280;13745;51.470;9.894;2023-01-27T06:14:23;99965.88;;;3.39;88.66
25947;BME280;13745;51.470;9.894;2023-01-27T06:17:08;99959.88;;;3.38;88.28
25947;BME280;13745;51.470;9.894;2023-01-27T06:19:53;99957.28;;;3.37;88.63
25947;BME280;13745;51.470;9.894;2023-01-27T06:22:40;99965.81;;;3.36;88.51
25947;BME280;13745;51.470;9.894;2023-01-27T06:25:25;99964.09;;;3.36;88.51
25947;BME280;13745;51.470;9.894;2023-01-27T06:28:10;99967.53;;;3.37;88.79
25947;BME280;13745;51.470;9.894;2023-01-27T06:31:02;99968.38;;;3.36;88.89
25947;BME280;13745;51.470;9.894;2023-01-27T06:33:48;99973.63;;;3.41;88.82
25947;BME280;13745;51.470;9.894;2023-01-27T06:36:33;99971.88;;;3.40;88.78
25947;BME280;13745;51.470;9.894;2023-01-27T06:39:21;99975.25;;;3.38;88.86
25947;BME280;13745;51.470;9.894;2023-01-27T06:42:06;99977.88;;;3.40;88.77
25947;BME280;13745;51.470;9.894;2023-01-27T06:44:52;99980.44;;;3.40;88.83
25947;BME280;13745;51.470;9.894;2023-01-27T06:47:37;99983.88;;;3.41;88.55
25947;BME280;13745;51.470;9.894;2023-01-27T06:50:23;99982.16;;;3.41;88.93
25947;BME280;13745;51.470;9.894;2023-01-27T06:53:09;99983.88;;;3.41;88.79
25947;BME280;13745;51.470;9.894;2023-01-27T06:55:56;99978.66;;;3.37;88.87
25947;BME280;13745;51.470;9.894;2023-01-27T06:58:41;99990.63;;;3.38;88.89
25947;BME280;13745;51.470;9.894;2023-01-27T07:01:27;99993.25;;;3.40;88.92
25947;BME280;13745;51.470;9.894;2023-01-27T07:04:12;99991.47;;;3.39;88.82
25947;BME280;13745;51.470;9.894;2023-01-27T07:06:57;99994.03;;;3.39;88.82
25947;BME280;13745;51.470;9.894;2023-01-27T07:09:42;99999.13;;;3.37;88.61
25947;BME280;13745;51.470;9.894;2023-01-27T07:12:28;100005.13;;;3.38;88.60
25947;BME280;13745;51.470;9.894;2023-01-27T07:15:13;100004.38;;;3.41;88.66
25947;BME280;13745;51.470;9.894;2023-01-27T07:17:59;100007.75;;;3.40;88.73
25947;BME280;13745;51.470;9.894;2023-01-27T07:20:44;100012.81;;;3.38;88.80
25947;BME280;13745;51.470;9.894;2023-01-27T07:23:29;100014.53;;;3.39;88.93
25947;BME280;13745;51.470;9.894;2023-01-27T07:26:14;100013.69;;;3.38;88.95
25947;BME280;13745;51.470;9.894;2023-01-27T07:29:00;100009.41;;;3.39;88.71
25947;BME280;13745;51.470;9.894;2023-01-27T07:31:45;100016.34;;;3.42;88.82
25947;BME280;13745;51.470;9.894;2023-01-27T07:34:30;100021.47;;;3.42;88.99
25947;BME280;13745;51.470;9.894;2023-01-27T07:37:15;100020.59;;;3.41;88.79
25947;BME280;13745;51.470;9.894;2023-01-27T07:40:00;100030.88;;;3.43;88.79
25947;BME280;13745;51.470;9.894;2023-01-27T07:42:46;100029.19;;;3.43;89.18
25947;BME280;13745;51.470;9.894;2023-01-27T07:45:33;100029.19;;;3.43;88.79
25947;BME280;13745;51.470;9.894;2023-01-27T07:48:19;100028.38;;;3.46;89.02
25947;BME280;13745;51.470;9.894;2023-01-27T07:51:04;100031.03;;;3.49;88.88
25947;BME280;13745;51.470;9.894;2023-01-27T07:53:49;100025.16;;;3.53;89.03
25947;BME280;13745;51.470;9.894;2023-01-27T07:56:34;100025.25;;;3.56;88.66
25947;BME280;13745;51.470;9.894;2023-01-27T07:59:20;100030.44;;;3.59;88.75
25947;BME280;13745;51.470;9.894;2023-01-27T08:02:08;100029.47;;;3.55;88.53
25947;BME280;13745;51.470;9.894;2023-01-27T08:04:53;100039.72;;;3.55;88.73
25947;BME280;13745;51.470;9.894;2023-01-27T08:07:38;100047.56;;;3.60;88.74
25947;BME280;13745;51.470;9.894;2023-01-27T08:10:23;100048.63;;;3.68;88.44
25947;BME280;13745;51.470;9.894;2023-01-27T08:13:08;100053.91;;;3.74;88.70
25947;BME280;13745;51.470;9.894;2023-01-27T08:15:57;100053.13;;;3.78;88.47
25947;BME280;13745;51.470;9.894;2023-01-27T08:18:43;100051.56;;;3.83;88.51
25947;BME280;13745;51.470;9.894;2023-01-27T08:21:28;100047.34;;;3.87;88.66
25947;BME280;13745;51.470;9.894;2023-01-27T08:24:16;100045.78;;;3.92;88.52
25947;BME280;13745;51.470;9.894;2023-01-27T08:27:01;100045.06;;;3.98;88.05
25947;BME280;13745;51.470;9.894;2023-01-27T08:29:46;100043.50;;;4.04;88.32
25947;BME280;13745;51.470;9.894;2023-01-27T08:32:32;100041.91;;;4.09;88.34
25947;BME280;13745;51.470;9.894;2023-01-27T08:35:19;100049.72;;;4.14;88.20
25947;BME280;13745;51.470;9.894;2023-01-27T08:38:04;100043.03;;;4.20;88.22
25947;BME280;13745;51.470;9.894;2023-01-27T08:40:49;100055.09;;;4.25;87.91
25947;BME280;13745;51.470;9.894;2023-01-27T08:43:34;100050.91;;;4.28;88.37
25947;BME280;13745;51.470;9.894;2023-01-27T08:46:20;100062.16;;;4.35;87.65
25947;BME280;13745;51.470;9.894;2023-01-27T08:49:05;100055.38;;;4.37;88.12
25947;BME280;13745;51.470;9.894;2023-01-27T08:51:51;100058.78;;;4.37;87.77
25947;BME280;13745;51.470;9.894;2023-01-27T08:54:36;100064.06;;;4.43;88.07
25947;BME280;13745;51.470;9.894;2023-01-27T08:57:21;100065.03;;;4.47;88.09
25947;BME280;13745;51.470;9.894;2023-01-27T09:00:09;100065.91;;;4.49;87.55
25947;BME280;13745;51.470;9.894;2023-01-27T09:02:55;100073.69;;;4.54;87.60
25947;BME280;13745;51.470;9.894;2023-01-27T09:05:40;100073.09;;;4.64;87.60
25947;BME280;13745;51.470;9.894;2023-01-27T09:08:26;100073.19;;;4.68;87.55
25947;BME280;13745;51.470;9.894;2023-01-27T09:11:14;100078.34;;;4.70;87.49
25947;BME280;13745;51.470;9.894;2023-01-27T09:14:00;100075.00;;;4.72;87.58
25947;BME280;13745;51.470;9.894;2023-01-27T09:16:44;100085.31;;;4.75;87.59
25947;BME280;13745;51.470;9.894;2023-01-27T09:19:29;100086.91;;;4.70;87.49
25947;BME280;13745;51.470;9.894;2023-01-27T09:22:14;100092.97;;;4.72;87.64
25947;BME280;13745;51.470;9.894;2023-01-27T09:25:01;100091.31;;;4.76;87.89
25947;BME280;13745;51.470;9.894;2023-01-27T09:27:46;100090.50;;;4.78;87.83
25947;BME280;13745;51.470;9.894;2023-01-27T09:30:31;100091.44;;;4.81;87.89
25947;BME280;13745;51.470;9.894;2023-01-27T09:33:16;100097.50;;;4.86;87.89
25947;BME280;13745;51.470;9.894;2023-01-27T09:36:04;100101.78;;;4.85;87.73
25947;BME280;13745;51.470;9.894;2023-01-27T09:38:53;100101.78;;;4.85;87.67
25947;BME280;13745;51.470;9.894;2023-01-27T09:41:54;100109.44;;;4.82;87.45
25947;BME280;13745;51.470;9.894;2023-01-27T09:45:00;100106.78;;;4.79;87.32
25947;BME280;13745;51.470;9.894;2023-01-27T09:47:59;100112.84;;;4.81;87.78
25947;BME280;13745;51.470;9.894;2023-01-27T09:50:51;100109.56;;;4.88;87.51
25947;BME280;13745;51.470;9.894;2023-01-27T09:53:54;100112.06;;;4.85;87.19
25947;BME280;13745;51.470;9.894;2023-01-27T09:56:53;100106.09;;;4.88;87.51
25947;BME280;13745;51.470;9.894;2023-01-27T09:59:53;100113.09;;;4.93;87.59
25947;BME280;13745;51.470;9.894;2023-01-27T10:03:00;100111.41;;;4.95;87.60
25947;BME280;13745;51.470;9.894;2023-01-27T10:06:08;100109.69;;;4.96;87.47
25947;BME280;13745;51.470;9.894;2023-01-27T10:09:25;100113.22;;;4.99;87.41
25947;BME280;13745;51.470;9.894;2023-01-27T10:12:33;100115.84;;;5.02;87.45
25947;BME280;13745;51.470;9.894;2023-01-27T10:15:34;100111.56;;;5.03;87.32
25947;BME280;13745;51.470;9.894;2023-01-27T10:18:33;100108.25;;;5.07;87.24
25947;BME280;13745;51.470;9.894;2023-01-27T10:21:29;100095.47;;;5.12;87.57
25947;BME280;13745;51.470;9.894;2023-01-27T10:24:31;100099.06;;;5.20;86.96
25947;BME280;13745;51.470;9.894;2023-01-27T10:27:21;100101.00;;;5.30;87.28
25947;BME280;13745;51.470;9.894;2023-01-27T10:30:13;100093.22;;;5.28;87.05
25947;BME280;13745;51.470;9.894;2023-01-27T10:33:04;100101.88;;;5.32;87.34
25947;BME280;13745;51.470;9.894;2023-01-27T10:35:53;100104.59;;;5.38;87.41
25947;BME280;13745;51.470;9.894;2023-01-27T10:38:45;100098.53;;;5.38;87.06
25947;BME280;13745;51.470;9.894;2023-01-27T10:41:39;100102.81;;;5.37;87.45
25947;BME280;13745;51.470;9.894;2023-01-27T10:44:41;100099.50;;;5.43;86.84
25947;BME280;13745;51.470;9.894;2023-01-27T10:47:45;100109.06;;;5.48;87.13
25947;BME280;13745;51.470;9.894;2023-01-27T10:50:34;100097.97;;;5.52;87.28
25947;BME280;13745;51.470;9.894;2023-01-27T10:53:27;100103.25;;;5.58;86.63
25947;BME280;13745;51.470;9.894;2023-01-27T10:56:19;100100.78;;;5.63;87.07
25947;BME280;13745;51.470;9.894;2023-01-27T10:59:14;100100.00;;;5.70;86.89
25947;BME280;13745;51.470;9.894;2023-01-27T11:02:12;100101.72;;;5.70;86.97
25947;BME280;13745;51.470;9.894;2023-01-27T11:05:04;100094.84;;;5.69;86.93
25947;BME280;13745;51.470;9.894;2023-01-27T11:07:56;100093.13;;;5.69;87.01
25947;BME280;13745;51.470;9.894;2023-01-27T11:10:46;100090.56;;;5.69;86.32
25947;BME280;13745;51.470;9.894;2023-01-27T11:13:46;100092.28;;;5.69;86.97
25947;BME280;13745;51.470;9.894;2023-01-27T11:16:35;100088.84;;;5.70;86.77
25947;BME280;13745;51.470;9.894;2023-01-27T11:19:33;100092.34;;;5.72;86.23
25947;BME280;13745;51.470;9.894;2023-01-27T11:22:24;100095.84;;;5.77;86.66
25947;BME280;13745;51.470;9.894;2023-01-27T11:25:20;100090.72;;;5.78;86.68
25947;BME280;13745;51.470;9.894;2023-01-27T11:28:21;100087.25;;;5.76;85.85
25947;BME280;13745;51.470;9.894;2023-01-27T11:31:20;100081.34;;;5.80;86.31
25947;BME280;13745;51.470;9.894;2023-01-27T11:34:12;100088.25;;;5.84;85.78
25947;BME280;13745;51.470;9.894;2023-01-27T11:37:01;100082.44;;;5.93;86.41
25947;BME280;13745;51.470;9.894;2023-01-27T11:39:59;100081.72;;;6.02;85.70
25947;BME280;13745;51.470;9.894;2023-01-27T11:42:44;100079.38;;;6.14;85.66
25947;BME280;13745;51.470;9.894;2023-01-27T11:45:32;100075.13;;;6.17;85.89
25947;BME280;13745;51.470;9.894;2023-01-27T11:48:19;100078.56;;;6.19;85.23
25947;BME280;13745;51.470;9.894;2023-01-27T11:51:04;100073.47;;;6.21;85.03
25947;BME280;13745;51.470;9.894;2023-01-27T11:53:52;100077.78;;;6.24;85.35
25947;BME280;13745;51.470;9.894;2023-01-27T11:56:47;100078.72;;;6.29;85.08
25947;BME280;13745;51.470;9.894;2023-01-27T11:59:37;100076.25;;;6.36;84.97
25947;BME280;13745;51.470;9.894;2023-01-27T12:02:29;100077.22;;;6.44;85.57
25947;BME280;13745;51.470;9.894;2023-01-27T12:05:17;100070.47;;;6.53;84.67
25947;BME280;13745;51.470;9.894;2023-01-27T12:08:03;100068.81;;;6.55;84.84
25947;BME280;13745;51.470;9.894;2023-01-27T12:10:49;100071.53;;;6.67;84.58
25947;BME280;13745;51.470;9.894;2023-01-27T12:13:47;100064.66;;;6.66;84.47
25947;BME280;13745;51.470;9.894;2023-01-27T12:16:41;100063.06;;;6.74;84.71
25947;BME280;13745;51.470;9.894;2023-01-27T12:19:30;100065.78;;;6.86;84.48
25947;BME280;13745;51.470;9.894;2023-01-27T12:22:23;100060.78;;;6.97;84.52
25947;BME280;13745;51.470;9.894;2023-01-27T12:25:15;100058.31;;;7.08;84.02
25947;BME280;13745;51.470;9.894;2023-01-27T12:28:03;100057.63;;;7.22;83.75
25947;BME280;13745;51.470;9.894;2023-01-27T12:30:51;100060.19;;;7.21;83.28
25947;BME280;13745;51.470;9.894;2023-01-27T12:33:43;100057.53;;;7.13;83.52
25947;BME280;13745;51.470;9.894;2023-01-27T12:36:35;100061.75;;;7.07;84.00
25947;BME280;13745;51.470;9.894;2023-01-27T12:39:24;100058.00;;;6.82;84.60
25947;BME280;13745;51.470;9.894;2023-01-27T12:42:34;100057.06;;;6.75;84.11
25947;BME280;13745;51.470;9.894;2023-01-27T12:45:25;100065.59;;;6.71;85.01
25947;BME280;13745;51.470;9.894;2023-01-27T12:48:17;100059.44;;;6.60;84.50
25947;BME280;13745;51.470;9.894;2023-01-27T12:51:05;100064.47;;;6.54;84.52
25947;BME280;13745;51.470;9.894;2023-01-27T12:54:13;100060.03;;;6.42;84.03
25947;BME280;13745;51.470;9.894;2023-01-27T12:57:03;100058.28;;;6.38;83.88
25947;BME280;13745;51.470;9.894;2023-01-27T12:59:51;100065.94;;;6.35;84.40
25947;BME280;13745;51.470;9.894;2023-01-27T13:02:38;100063.25;;;6.29;83.97
25947;BME280;13745;51.470;9.894;2023-01-27T13:05:25;100058.06;;;6.23;84.48
25947;BME280;13745;51.470;9.894;2023-01-27T13:08:14;100067.38;;;6.16;84.10
25947;BME280;13745;51.470;9.894;2023-01-27T13:11:01;100064.78;;;6.13;84.53
25947;BME280;13745;51.470;9.894;2023-01-27T13:13:48;100057.81;;;6.09;83.88
25947;BME280;13745;51.470;9.894;2023-01-27T13:16:36;100060.38;;;6.06;84.38
25947;BME280;13745;51.470;9.894;2023-01-27T13:19:29;100068.84;;;6.00;83.88
25947;BME280;13745;51.470;9.894;2023-01-27T13:22:18;100065.38;;;5.97;83.88
25947;BME280;13745;51.470;9.894;2023-01-27T13:25:13;100068.63;;;5.89;84.28
25947;BME280;13745;51.470;9.894;2023-01-27T13:27:58;100068.25;;;5.67;84.85
25947;BME280;13745;51.470;9.894;2023-01-27T13:30:48;100066.66;;;5.73;84.39
25947;BME280;13745;51.470;9.894;2023-01-27T13:33:38;100062.31;;;5.71;84.68
25947;BME280;13745;51.470;9.894;2023-01-27T13:36:33;100070.91;;;5.71;84.17
25947;BME280;13745;51.470;9.894;2023-01-27T13:39:31;100074.25;;;5.67;84.81
25947;BME280;13745;51.470;9.894;2023-01-27T13:42:21;100081.94;;;5.66;84.05
25947;BME280;13745;51.470;9.894;2023-01-27T13:45:11;100085.34;;;5.63;84.35
25947;BME280;13745;51.470;9.894;2023-01-27T13:48:01;100086.16;;;5.62;84.19
25947;BME280;13745;51.470;9.894;2023-01-27T13:50:50;100089.56;;;5.61;84.72
25947;BME280;13745;51.470;9.894;2023-01-27T13:53:37;100091.28;;;5.62;84.73
25947;BME280;13745;51.470;9.894;2023-01-27T13:56:34;100098.06;;;5.57;83.92
25947;BME280;13745;51.470;9.894;2023-01-27T13:59:36;100098.00;;;5.54;84.52
25947;BME280;13745;51.470;9.894;2023-01-27T14:02:37;100092.91;;;5.55;84.16
25947;BME280;13745;51.470;9.894;2023-01-27T14:05:35;100088.53;;;5.51;84.10
25947;BME280;13745;51.470;9.894;2023-01-27T14:08:38;100097.00;;;5.46;84.66
25947;BME280;13745;51.470;9.894;2023-01-27T14:11:30;100088.50;;;5.48;84.28
25947;BME280;13745;51.470;9.894;2023-01-27T14:14:34;100098.66;;;5.44;84.23
25947;BME280;13745;51.470;9.894;2023-01-27T14:17:32;100097.00;;;5.46;84.59
25947;BME280;13745;51.470;9.894;2023-01-27T14:20:29;100100.47;;;5.48;84.06
25947;BME280;13745;51.470;9.894;2023-01-27T14:23:26;100105.53;;;5.45;84.25
25947;BME280;13745;51.470;9.894;2023-01-27T14:26:20;100096.09;;;5.44;84.33
25947;BME280;13745;51.470;9.894;2023-01-27T14:29:20;100099.47;;;5.40;84.25
25947;BME280;13745;51.470;9.894;2023-01-27T14:32:17;100106.34;;;5.41;84.25
25947;BME280;13745;51.470;9.894;2023-01-27T14:35:16;100101.19;;;5.39;84.17
25947;BME280;13745;51.470;9.894;2023-01-27T14:38:09;100101.09;;;5.36;83.91
25947;BME280;13745;51.470;9.894;2023-01-27T14:41:10;100107.88;;;5.31;84.44
25947;BME280;13745;51.470;9.894;2023-01-27T14:44:03;100109.53;;;5.29;84.58
25947;BME280;13745;51.470;9.894;2023-01-27T14:46:55;100110.34;;;5.26;84.21
25947;BME280;13745;51.470;9.894;2023-01-27T14:50:01;100103.41;;;5.22;84.62
25947;BME280;13745;51.470;9.894;2023-01-27T14:52:57;100111.19;;;5.27;83.98
25947;BME280;13745;51.470;9.894;2023-01-27T14:55:47;100118.03;;;5.26;83.97
25947;BME280;13745;51.470;9.894;2023-01-27T14:58:45;100124.75;;;5.20;84.05
25947;BME280;13745;51.470;9.894;2023-01-27T15:01:39;100130.69;;;5.16;84.53
25947;BME280;13745;51.470;9.894;2023-01-27T15:04:36;100134.84;;;5.11;84.26